Shaoguan, China
Current Conditions -  °F | °C
As of 12:30 AM on Saturday 01 Nov 2014 (Local Time) from ZGGG Reporting Station
Haze Haze  
Wind Chill: 77°   Ceiling: Unl
Heat Index: 78°   Visibility: 3mi
Dew Point: 72°   Wind: 0mph
Humidity: 83%   Direction: NA
Pressure: 29.91"   Gusts: NA
Location:  24.8°N, 113.58°E
Report Text: ZGGG 311630Z 00000MPS 5000 BR NSC 25/22 Q1013 NOSIG
Loading
Personal Weather Stations






























Interactive Weather Map
Tropical Storm Tracking
New forecast layout! Learn more

10-Day Weather Forecast

Advertisements
Track Severe Weather on mobile